44XS weather

CLOSED Prudential Heliport
Bellaire, Texas, United States

Public forecast

Using degrees Fahrenheit for public forecast. Weather courtesy of forecast.io.

METAR (pilot weather report)

Closest report is William P Hobby Airport, 10.2 nm (19.0 km) ESE. Retrieved 2019/07/23 06:53 UTC (12 minutes ago):

KHOU 230653Z 26005KT 10SM FEW020 SCT065 BKN075 27/24 A2998 RMK AO2 SLP156 T02670244 $

TAF (pilot weather forecast)

Closest forecast is William P Hobby Airport, 10.2 nm (19.0 km) ESE. Retrieved 2019/07/23 06:22 UTC (43 minutes ago):

TAF KHOU 230520Z 2306/2406 21006KT P6SM BKN250 FM230800 VRB04KT P6SM VCSH SCT025 SCT060 BKN250 TEMPO 2309/2313 36007KT -SHRA BKN035 OVC100 FM231300 36010KT P6SM VCSH SCT035 BKN060 BKN250 FM231800 01009G15KT P6SM BKN050 BKN100 BKN250 FM240200 02006KT P6SM SCT060 BKN250